Time;durP1;ratioP1;P1;durP2;ratioP2;P2;SDS_P1;SDS_P2;PMS_P1;PMS_P2;Temp;Humidity;BMP_temperature;BMP_pressure;BME280_temperature;BME280_humidity;BME280_pressure;Samples;Min_cycle;Max_cycle;Signal;HPM_P1;HPM_P2
2022/12/10 00:02:11;;;;;;;;;;;;;;;;;;5019431;28;20360;-56
2022/12/10 00:04:37;;;;;;;;;;;;;;;;;;5037543;28;20850;-52
2022/12/10 00:07:02;;;;;;;;;;;;;;;;;;5049882;28;19926;-54
2022/12/10 00:09:27;;;;;;;;;;;;;;;;;;5034006;28;20383;-55
2022/12/10 00:11:53;;;;;;;;;;;;;;;;;;5031878;28;19924;-54
2022/12/10 00:14:20;;;;;;;;;;;;;;;;;;5049607;28;19920;-54
2022/12/10 00:16:48;;;;;;;;;;;;;;;;;;5033922;28;20156;-55
2022/12/10 00:19:13;;;;;;;;;;;;;;;;;;5029596;28;20302;-54
2022/12/10 00:21:39;;;;;;;;;;;;;;;;;;5037725;28;19931;-54
2022/12/10 00:24:09;;;;;;;;;;;;;;;;;;5053095;28;20361;-54
2022/12/10 00:26:40;;;;;;;;;;;;;;;;;;5049770;28;19924;-54
2022/12/10 00:29:07;;;;;;;;;;;;;;;;;;5052534;28;19923;-54
2022/12/10 00:31:33;;;;;;;;;;;;;;;;;;5055050;28;19924;-55
2022/12/10 00:33:58;;;;;;;;;;;;;;;;;;5055217;28;19916;-55
2022/12/10 00:36:23;;;;;;;;;;;;;;;;;;5054386;28;20461;-54
2022/12/10 00:38:51;;;;;;;;;;;;;;;;;;5041818;28;20294;-55
2022/12/10 00:41:17;;;;;;;;;;;;;;;;;;5039246;28;19923;-55
2022/12/10 00:43:42;;;;;;;;;;;;;;;;;;5038721;28;19920;-55
2022/12/10 00:46:10;;;;;;;;;;;;;;;;;;5023950;28;19931;-55
2022/12/10 00:48:37;;;;;;;;;;;;;;;;;;5058856;28;19920;-55
2022/12/10 00:51:03;;;;;;;;;;;;;;;;;;5054861;28;19935;-55
2022/12/10 00:53:31;;;;;;;;;;;;;;;;;;5054559;28;19943;-54
2022/12/10 00:55:56;;;;;;;;;;;;;;;;;;5058570;28;20665;-55
2022/12/10 00:58:24;;;;;;;;;;;;;;;;;;5056220;28;19927;-55
2022/12/10 01:00:49;;;;;;;;;;;;;;;;;;5055241;28;19979;-55
2022/12/10 01:03:15;;;;;;;;;;;;;;;;;;5058293;28;20059;-57
2022/12/10 01:05:40;;;;;;;;;;;;;;;;;;5038283;28;20402;-54
2022/12/10 01:08:08;;;;;;;;;;;;;;;;;;5055926;28;19920;-55
2022/12/10 01:10:33;;;;;;;;;;;;;;;;;;5057783;28;20295;-55
2022/12/10 01:13:01;;;;;;;;;;;;;;;;;;5040278;28;19927;-57
2022/12/10 01:15:27;;;;;;;;;;;;;;;;;;5056399;28;21790;-55
2022/12/10 01:17:52;;;;;;;;;;;;;;;;;;5038825;28;20203;-53
2022/12/10 01:20:20;;;;;;;;;;;;;;;;;;5036222;28;20231;-55
2022/12/10 01:22:47;;;;;;;;;;;;;;;;;;5052748;28;19924;-53
2022/12/10 01:25:15;;;;;;;;;;;;;;;;;;5052425;28;20008;-56
2022/12/10 01:27:42;;;;;;;;;;;;;;;;;;5035553;28;20558;-56
2022/12/10 01:30:08;;;;;;;;;;;;;;;;;;5051382;28;19974;-53
2022/12/10 01:32:34;;;;;;;;;;;;;;;;;;5035848;28;20325;-55
2022/12/10 01:35:07;;;;;;;;;;;;;;;;;;5054360;28;20292;-54
2022/12/10 01:37:33;;;;;;;;;;;;;;;;;;5043437;28;20029;-53
2022/12/10 01:40:01;;;;;;;;;;;;;;;;;;5057022;28;19959;-54
2022/12/10 01:42:29;;;;;;;;;;;;;;;;;;5058113;28;20669;-54
2022/12/10 01:44:56;;;;;;;;;;;;;;;;;;5059191;28;19927;-56
2022/12/10 01:47:24;;;;;;;;;;;;;;;;;;5057684;28;20440;-56
2022/12/10 01:49:52;;;;;;;;;;;;;;;;;;5057820;28;19920;-55
2022/12/10 01:52:20;;;;;;;;;;;;;;;;;;5050983;28;19920;-55
2022/12/10 01:54:48;;;;;;;;;;;;;;;;;;5049527;28;19977;-56
2022/12/10 01:57:16;;;;;;;;;;;;;;;;;;5041439;28;20439;-56
2022/12/10 01:59:41;;;;;;;;;;;;;;;;;;5054463;28;19959;-57
2022/12/10 02:02:07;;;;;;;;;;;;;;;;;;5056237;28;20875;-56
2022/12/10 02:04:32;;;;;;;;;;;;;;;;;;5054575;28;20341;-54
2022/12/10 02:07:01;;;;;;;;;;;;;;;;;;5053465;28;20039;-55
2022/12/10 02:09:26;;;;;;;;;;;;;;;;;;5033863;28;19927;-53
2022/12/10 02:11:51;;;;;;;;;;;;;;;;;;5055112;28;19920;-53
2022/12/10 02:14:16;;;;;;;;;;;;;;;;;;5056113;28;19923;-55
2022/12/10 02:16:42;;;;;;;;;;;;;;;;;;5057864;28;20375;-55
2022/12/10 02:19:09;;;;;;;;;;;;;;;;;;5055897;28;19974;-54
2022/12/10 02:21:35;;;;;;;;;;;;;;;;;;5053777;28;19997;-56
2022/12/10 02:24:01;;;;;;;;;;;;;;;;;;5053758;28;20949;-54
2022/12/10 02:26:28;;;;;;;;;;;;;;;;;;5054824;28;20844;-55
2022/12/10 02:28:56;;;;;;;;;;;;;;;;;;5055282;28;20327;-54
2022/12/10 02:31:21;;;;;;;;;;;;;;;;;;5054063;28;19935;-55
2022/12/10 02:33:46;;;;;;;;;;;;;;;;;;5055111;28;20058;-55
2022/12/10 02:36:12;;;;;;;;;;;;;;;;;;5054303;28;21442;-54
2022/12/10 02:38:40;;;;;;;;;;;;;;;;;;5050151;28;19916;-55
2022/12/10 02:41:05;;;;;;;;;;;;;;;;;;5054302;28;19970;-54
2022/12/10 02:43:33;;;;;;;;;;;;;;;;;;5033768;28;19928;-54
2022/12/10 02:45:58;;;;;;;;;;;;;;;;;;5054272;28;21468;-55
2022/12/10 02:48:24;;;;;;;;;;;;;;;;;;5051447;28;20059;-54
2022/12/10 02:50:49;;;;;;;;;;;;;;;;;;5053359;28;20391;-57
2022/12/10 02:53:17;;;;;;;;;;;;;;;;;;5053237;28;19919;-54
2022/12/10 02:55:45;;;;;;;;;;;;;;;;;;5054579;28;20390;-54
2022/12/10 02:58:10;;;;;;;;;;;;;;;;;;5054392;28;20588;-55
2022/12/10 03:00:38;;;;;;;;;;;;;;;;;;5056559;28;20358;-55
2022/12/10 03:03:03;;;;;;;;;;;;;;;;;;5054387;28;20054;-54
2022/12/10 03:05:29;;;;;;;;;;;;;;;;;;5053687;28;19916;-54
2022/12/10 03:07:57;;;;;;;;;;;;;;;;;;5053573;28;20322;-53
2022/12/10 03:10:25;;;;;;;;;;;;;;;;;;5019294;28;19965;-55
2022/12/10 03:12:52;;;;;;;;;;;;;;;;;;5052320;28;20331;-56
2022/12/10 03:15:18;;;;;;;;;;;;;;;;;;5053146;28;20091;-56
2022/12/10 03:17:43;;;;;;;;;;;;;;;;;;5035102;28;19936;-56
2022/12/10 03:20:11;;;;;;;;;;;;;;;;;;5053995;28;19935;-55
2022/12/10 03:22:38;;;;;;;;;;;;;;;;;;5032704;28;20084;-55
2022/12/10 03:25:03;;;;;;;;;;;;;;;;;;5035795;28;19939;-55
2022/12/10 03:27:31;;;;;;;;;;;;;;;;;;5039269;28;19977;-53
2022/12/10 03:29:57;;;;;;;;;;;;;;;;;;5055227;28;19942;-54
2022/12/10 03:32:22;;;;;;;;;;;;;;;;;;5053683;28;20378;-54
2022/12/10 03:34:47;;;;;;;;;;;;;;;;;;5050732;28;19924;-54
2022/12/10 03:37:13;;;;;;;;;;;;;;;;;;5034853;28;19998;-55
2022/12/10 03:39:38;;;;;;;;;;;;;;;;;;5055187;28;19930;-55
2022/12/10 03:42:04;;;;;;;;;;;;;;;;;;5035703;28;20311;-55
2022/12/10 03:44:29;;;;;;;;;;;;;;;;;;5054100;28;20303;-55
2022/12/10 03:46:54;;;;;;;;;;;;;;;;;;5055069;28;20043;-56
2022/12/10 03:49:22;;;;;;;;;;;;;;;;;;5023307;28;20022;-55
2022/12/10 03:51:50;;;;;;;;;;;;;;;;;;5033995;28;19916;-54
2022/12/10 03:54:15;;;;;;;;;;;;;;;;;;5057467;28;20175;-54
2022/12/10 03:56:43;;;;;;;;;;;;;;;;;;5055183;28;20367;-55
2022/12/10 03:59:13;;;;;;;;;;;;;;;;;;5054077;28;19920;-55
2022/12/10 04:01:41;;;;;;;;;;;;;;;;;;5053181;28;19924;-55
2022/12/10 04:04:06;;;;;;;;;;;;;;;;;;5054746;28;19981;-56
2022/12/10 04:06:32;;;;;;;;;;;;;;;;;;5055599;28;20398;-55
2022/12/10 04:08:57;;;;;;;;;;;;;;;;;;5052119;28;19920;-54
2022/12/10 04:11:23;;;;;;;;;;;;;;;;;;5035077;28;20389;-55
2022/12/10 04:16:32;;;;;;;;;;;;;;;;;;5049524;28;20453;-55
2022/12/10 04:18:57;;;;;;;;;;;;;;;;;;5052907;28;19932;-56
2022/12/10 04:26:51;;;;;;;;;;;;;;;;;;5051626;28;20000;-55
2022/12/10 04:29:19;;;;;;;;;;;;;;;;;;5053297;28;19916;-54
2022/12/10 04:31:44;;;;;;;;;;;;;;;;;;5036647;28;20547;-56
2022/12/10 04:34:09;;;;;;;;;;;;;;;;;;5051456;28;19920;-55
2022/12/10 04:36:37;;;;;;;;;;;;;;;;;;5054851;28;19959;-55
2022/12/10 04:39:03;;;;;;;;;;;;;;;;;;5049575;28;20361;-56
2022/12/10 04:41:28;;;;;;;;;;;;;;;;;;5032917;28;19924;-55
2022/12/10 04:43:56;;;;;;;;;;;;;;;;;;5053086;28;19921;-55
2022/12/10 04:46:21;;;;;;;;;;;;;;;;;;5035166;28;19928;-56
2022/12/10 04:48:48;;;;;;;;;;;;;;;;;;5033842;28;20079;-56
2022/12/10 04:51:17;;;;;;;;;;;;;;;;;;5021059;28;19993;-54
2022/12/10 04:53:44;;;;;;;;;;;;;;;;;;5035100;28;20314;-55
2022/12/10 04:56:09;;;;;;;;;;;;;;;;;;5054628;28;19942;-54
2022/12/10 04:58:37;;;;;;;;;;;;;;;;;;5053891;28;20022;-55
2022/12/10 05:01:07;;;;;;;;;;;;;;;;;;5054958;28;19924;-55
2022/12/10 05:03:32;;;;;;;;;;;;;;;;;;5052900;28;19920;-55
2022/12/10 05:06:00;;;;;;;;;;;;;;;;;;5051425;28;19916;-55
2022/12/10 05:08:28;;;;;;;;;;;;;;;;;;5054422;28;20501;-57
2022/12/10 05:10:55;;;;;;;;;;;;;;;;;;5033154;28;20411;-54
2022/12/10 05:13:21;;;;;;;;;;;;;;;;;;5033583;28;20064;-55
2022/12/10 05:15:47;;;;;;;;;;;;;;;;;;5052761;28;20742;-55
2022/12/10 05:18:12;;;;;;;;;;;;;;;;;;5054624;28;19924;-55
2022/12/10 05:20:42;;;;;;;;;;;;;;;;;;5055038;28;19917;-55
2022/12/10 05:25:57;;;;;;;;;;;;;;;;;;5053977;28;20042;-54
2022/12/10 05:28:22;;;;;;;;;;;;;;;;;;5038999;28;19917;-56
2022/12/10 05:30:50;;;;;;;;;;;;;;;;;;5058502;28;19920;-55
2022/12/10 05:33:18;;;;;;;;;;;;;;;;;;5057774;28;20414;-56
2022/12/10 05:35:45;;;;;;;;;;;;;;;;;;5059451;28;19925;-56
2022/12/10 05:38:13;;;;;;;;;;;;;;;;;;5040412;28;20450;-56
2022/12/10 05:40:41;;;;;;;;;;;;;;;;;;5037847;28;19922;-56
2022/12/10 05:43:06;;;;;;;;;;;;;;;;;;5036518;28;19920;-57
2022/12/10 05:45:32;;;;;;;;;;;;;;;;;;5056255;28;20053;-56
2022/12/10 05:48:00;;;;;;;;;;;;;;;;;;5037157;28;19920;-56
2022/12/10 05:50:25;;;;;;;;;;;;;;;;;;5033848;28;20676;-56
2022/12/10 05:52:51;;;;;;;;;;;;;;;;;;5054738;28;21173;-56
2022/12/10 05:55:18;;;;;;;;;;;;;;;;;;5052219;28;20358;-56
2022/12/10 05:57:44;;;;;;;;;;;;;;;;;;5051284;28;19927;-55
2022/12/10 06:00:10;;;;;;;;;;;;;;;;;;5055399;28;20051;-56
2022/12/10 06:02:39;;;;;;;;;;;;;;;;;;5054894;28;19951;-54
2022/12/10 06:05:10;;;;;;;;;;;;;;;;;;5036096;28;19920;-55
2022/12/10 06:07:35;;;;;;;;;;;;;;;;;;5054963;28;21649;-55
2022/12/10 06:10:00;;;;;;;;;;;;;;;;;;5015668;28;19916;-55
2022/12/10 06:12:26;;;;;;;;;;;;;;;;;;5052440;28;20466;-55
2022/12/10 06:14:53;;;;;;;;;;;;;;;;;;5052997;28;19919;-55
2022/12/10 06:17:19;;;;;;;;;;;;;;;;;;5046180;28;19920;-57
2022/12/10 06:19:44;;;;;;;;;;;;;;;;;;5036418;28;19935;-55
2022/12/10 06:22:09;;;;;;;;;;;;;;;;;;5051195;28;20500;-56
2022/12/10 06:24:35;;;;;;;;;;;;;;;;;;5048045;28;19951;-56
2022/12/10 06:27:03;;;;;;;;;;;;;;;;;;5052279;28;19951;-56
2022/12/10 06:29:31;;;;;;;;;;;;;;;;;;5031142;28;20078;-56
2022/12/10 06:32:01;;;;;;;;;;;;;;;;;;5054001;28;20018;-57
2022/12/10 06:34:29;;;;;;;;;;;;;;;;;;5037711;28;19916;-56
2022/12/10 06:36:54;;;;;;;;;;;;;;;;;;5054110;28;19920;-56
2022/12/10 06:39:19;;;;;;;;;;;;;;;;;;5016710;28;20037;-56
2022/12/10 06:41:45;;;;;;;;;;;;;;;;;;5033935;28;19954;-56
2022/12/10 06:44:13;;;;;;;;;;;;;;;;;;5048907;28;19924;-57
2022/12/10 06:46:43;;;;;;;;;;;;;;;;;;5052056;28;20018;-56
2022/12/10 06:49:08;;;;;;;;;;;;;;;;;;5013420;28;20312;-56
2022/12/10 06:51:38;;;;;;;;;;;;;;;;;;5052802;28;19921;-56
2022/12/10 06:54:03;;;;;;;;;;;;;;;;;;5048558;28;19925;-57
2022/12/10 06:56:31;;;;;;;;;;;;;;;;;;5031568;28;19968;-57
2022/12/10 06:58:56;;;;;;;;;;;;;;;;;;5018559;28;19978;-58
2022/12/10 07:01:21;;;;;;;;;;;;;;;;;;5055362;28;19920;-57
2022/12/10 07:03:47;;;;;;;;;;;;;;;;;;5023215;28;19923;-55
2022/12/10 07:06:16;;;;;;;;;;;;;;;;;;5051564;28;19962;-55
2022/12/10 07:08:44;;;;;;;;;;;;;;;;;;5052200;28;20016;-57
2022/12/10 07:11:12;;;;;;;;;;;;;;;;;;5033919;28;20134;-56
2022/12/10 07:13:42;;;;;;;;;;;;;;;;;;5052519;28;20298;-57
2022/12/10 07:16:08;;;;;;;;;;;;;;;;;;5032038;28;19924;-57
2022/12/10 07:18:35;;;;;;;;;;;;;;;;;;5052258;28;19921;-57
2022/12/10 07:21:03;;;;;;;;;;;;;;;;;;5050275;28;19928;-55
2022/12/10 07:23:28;;;;;;;;;;;;;;;;;;5032714;28;21611;-58
2022/12/10 07:25:56;;;;;;;;;;;;;;;;;;5033522;28;19997;-56
2022/12/10 07:28:21;;;;;;;;;;;;;;;;;;5024875;28;20167;-55
2022/12/10 07:30:47;;;;;;;;;;;;;;;;;;5052280;28;20587;-56
2022/12/10 07:33:13;;;;;;;;;;;;;;;;;;5037527;28;20378;-55
2022/12/10 07:35:40;;;;;;;;;;;;;;;;;;5057388;28;19952;-55
2022/12/10 07:38:06;;;;;;;;;;;;;;;;;;5038798;28;22061;-56
2022/12/10 07:40:31;;;;;;;;;;;;;;;;;;5029240;28;20168;-56
2022/12/10 07:42:59;;;;;;;;;;;;;;;;;;5052047;28;19951;-55
2022/12/10 07:45:25;;;;;;;;;;;;;;;;;;5055487;28;19924;-56
2022/12/10 07:47:53;;;;;;;;;;;;;;;;;;5051536;28;19924;-58
2022/12/10 07:50:18;;;;;;;;;;;;;;;;;;5052148;28;19998;-55
2022/12/10 07:52:43;;;;;;;;;;;;;;;;;;5052747;28;19921;-56
2022/12/10 07:55:11;;;;;;;;;;;;;;;;;;5038148;28;19920;-57
2022/12/10 07:57:36;;;;;;;;;;;;;;;;;;5037591;28;19921;-57
2022/12/10 08:00:04;;;;;;;;;;;;;;;;;;5052309;28;19920;-56
2022/12/10 08:02:29;;;;;;;;;;;;;;;;;;5051511;28;20009;-56
2022/12/10 08:04:57;;;;;;;;;;;;;;;;;;5022576;28;20304;-55
2022/12/10 08:07:22;;;;;;;;;;;;;;;;;;5053463;28;19923;-57
2022/12/10 08:09:50;;;;;;;;;;;;;;;;;;5057310;28;19921;-56
2022/12/10 08:12:15;;;;;;;;;;;;;;;;;;5056230;28;19927;-58
2022/12/10 08:14:41;;;;;;;;;;;;;;;;;;5041779;28;19920;-54
2022/12/10 08:17:06;;;;;;;;;;;;;;;;;;5056696;28;20063;-56
2022/12/10 08:19:36;;;;;;;;;;;;;;;;;;5034814;28;19968;-57
2022/12/10 08:22:02;;;;;;;;;;;;;;;;;;5055356;28;20605;-57
2022/12/10 08:24:27;;;;;;;;;;;;;;;;;;5057025;28;19936;-57
2022/12/10 08:26:55;;;;;;;;;;;;;;;;;;5037311;28;20045;-57
2022/12/10 08:29:20;;;;;;;;;;;;;;;;;;5034487;28;20434;-57
2022/12/10 08:31:48;;;;;;;;;;;;;;;;;;5055504;28;19920;-57
2022/12/10 08:34:16;;;;;;;;;;;;;;;;;;5055923;28;20313;-57
2022/12/10 08:36:42;;;;;;;;;;;;;;;;;;5054393;28;19916;-57
2022/12/10 08:39:10;;;;;;;;;;;;;;;;;;5056300;28;20001;-57
2022/12/10 08:41:35;;;;;;;;;;;;;;;;;;5038896;28;19920;-57
2022/12/10 08:44:01;;;;;;;;;;;;;;;;;;5058109;28;20037;-57
2022/12/10 08:46:31;;;;;;;;;;;;;;;;;;5053754;28;19920;-57
2022/12/10 08:48:56;;;;;;;;;;;;;;;;;;5023383;28;19927;-56
2022/12/10 08:51:22;;;;;;;;;;;;;;;;;;5059085;28;19924;-57
2022/12/10 08:53:47;;;;;;;;;;;;;;;;;;5062188;28;19920;-57
2022/12/10 08:56:13;;;;;;;;;;;;;;;;;;5043799;28;20297;-57
2022/12/10 08:58:38;;;;;;;;;;;;;;;;;;5058309;28;19931;-58
2022/12/10 09:01:03;;;;;;;;;;;;;;;;;;5023899;28;19924;-57
2022/12/10 09:03:31;;;;;;;;;;;;;;;;;;5038085;28;19920;-57
2022/12/10 09:05:58;;;;;;;;;;;;;;;;;;5059996;28;19917;-57
2022/12/10 09:08:26;;;;;;;;;;;;;;;;;;5056384;28;19916;-57
2022/12/10 09:10:53;;;;;;;;;;;;;;;;;;5060049;28;20561;-57
2022/12/10 09:13:21;;;;;;;;;;;;;;;;;;5059459;28;20367;-57
2022/12/10 09:15:46;;;;;;;;;;;;;;;;;;5057650;28;19949;-56
2022/12/10 09:18:17;;;;;;;;;;;;;;;;;;5039618;28;19969;-57
2022/12/10 09:20:42;;;;;;;;;;;;;;;;;;5044551;28;20190;-56
2022/12/10 09:23:09;;;;;;;;;;;;;;;;;;5059895;28;19986;-56
2022/12/10 09:25:39;;;;;;;;;;;;;;;;;;5060140;28;20616;-57
2022/12/10 09:28:08;;;;;;;;;;;;;;;;;;5058351;28;19920;-59
2022/12/10 09:30:36;;;;;;;;;;;;;;;;;;5057289;28;20105;-56
2022/12/10 09:33:03;;;;;;;;;;;;;;;;;;5053140;28;19920;-57
2022/12/10 09:35:29;;;;;;;;;;;;;;;;;;5036328;28;19931;-57
2022/12/10 09:37:56;;;;;;;;;;;;;;;;;;5034538;28;20457;-57
2022/12/10 09:40:21;;;;;;;;;;;;;;;;;;5054795;28;20010;-56
2022/12/10 09:42:49;;;;;;;;;;;;;;;;;;5052074;28;20051;-57
2022/12/10 09:45:14;;;;;;;;;;;;;;;;;;5054177;28;20028;-58
2022/12/10 09:47:40;;;;;;;;;;;;;;;;;;5037909;28;20402;-56
2022/12/10 09:50:05;;;;;;;;;;;;;;;;;;5054154;28;19924;-57
2022/12/10 09:52:32;;;;;;;;;;;;;;;;;;5039823;28;19967;-57
2022/12/10 09:55:03;;;;;;;;;;;;;;;;;;5044703;28;19916;-57
2022/12/10 09:57:30;;;;;;;;;;;;;;;;;;5024414;28;19924;-57
2022/12/10 09:59:57;;;;;;;;;;;;;;;;;;5041447;28;19916;-57
2022/12/10 10:02:23;;;;;;;;;;;;;;;;;;5058832;28;19931;-58
2022/12/10 10:04:49;;;;;;;;;;;;;;;;;;5059234;28;19986;-57
2022/12/10 10:07:14;;;;;;;;;;;;;;;;;;5057956;28;20264;-57
2022/12/10 10:09:39;;;;;;;;;;;;;;;;;;5053733;28;19923;-57
2022/12/10 10:12:07;;;;;;;;;;;;;;;;;;5038450;28;19916;-57
2022/12/10 10:14:35;;;;;;;;;;;;;;;;;;5036269;28;19966;-57
2022/12/10 10:17:00;;;;;;;;;;;;;;;;;;5037257;28;19920;-58
2022/12/10 10:19:25;;;;;;;;;;;;;;;;;;5051929;28;19943;-57
2022/12/10 10:21:51;;;;;;;;;;;;;;;;;;5052445;28;20077;-58
2022/12/10 10:24:21;;;;;;;;;;;;;;;;;;5054175;28;20524;-57
2022/12/10 10:26:49;;;;;;;;;;;;;;;;;;5057531;28;20216;-57
2022/12/10 10:29:17;;;;;;;;;;;;;;;;;;5041211;28;19958;-57
2022/12/10 10:31:45;;;;;;;;;;;;;;;;;;5054966;28;19920;-57
2022/12/10 10:34:10;;;;;;;;;;;;;;;;;;5058282;28;20246;-57
2022/12/10 10:36:36;;;;;;;;;;;;;;;;;;5059211;28;20386;-57
2022/12/10 10:39:01;;;;;;;;;;;;;;;;;;5057051;28;21565;-57
2022/12/10 10:41:29;;;;;;;;;;;;;;;;;;5053514;28;19976;-56
2022/12/10 10:43:54;;;;;;;;;;;;;;;;;;5057789;28;19931;-57
2022/12/10 10:46:19;;;;;;;;;;;;;;;;;;5040340;28;19924;-57
2022/12/10 10:48:50;;;;;;;;;;;;;;;;;;5034732;28;19920;-57
2022/12/10 10:51:18;;;;;;;;;;;;;;;;;;5034826;28;19927;-57
2022/12/10 10:53:44;;;;;;;;;;;;;;;;;;5033921;28;19977;-57
2022/12/10 10:56:09;;;;;;;;;;;;;;;;;;5052715;28;19924;-57
2022/12/10 10:58:35;;;;;;;;;;;;;;;;;;5054904;28;19927;-58
2022/12/10 11:01:03;;;;;;;;;;;;;;;;;;5057208;28;20006;-56
2022/12/10 11:03:28;;;;;;;;;;;;;;;;;;5054086;28;19920;-56
2022/12/10 11:05:54;;;;;;;;;;;;;;;;;;5044173;28;20283;-59
2022/12/10 11:08:22;;;;;;;;;;;;;;;;;;5054253;28;19991;-57
2022/12/10 11:10:48;;;;;;;;;;;;;;;;;;5043734;28;20342;-56
2022/12/10 11:13:13;;;;;;;;;;;;;;;;;;5051084;28;19927;-56
2022/12/10 11:15:41;;;;;;;;;;;;;;;;;;5020736;28;19916;-56
2022/12/10 11:18:06;;;;;;;;;;;;;;;;;;5056753;28;19920;-56
2022/12/10 11:20:34;;;;;;;;;;;;;;;;;;5058224;28;19973;-57
2022/12/10 11:22:59;;;;;;;;;;;;;;;;;;5037211;28;20023;-56
2022/12/10 11:25:27;;;;;;;;;;;;;;;;;;5058238;28;19917;-57
2022/12/10 11:27:53;;;;;;;;;;;;;;;;;;5057532;28;20535;-57
2022/12/10 11:30:22;;;;;;;;;;;;;;;;;;5057825;28;19919;-57
2022/12/10 11:32:47;;;;;;;;;;;;;;;;;;5039761;28;20120;-57
2022/12/10 11:35:15;;;;;;;;;;;;;;;;;;5039132;28;20089;-56
2022/12/10 11:37:40;;;;;;;;;;;;;;;;;;5035731;28;20450;-58
2022/12/10 11:40:08;;;;;;;;;;;;;;;;;;5048903;28;19916;-58
2022/12/10 11:42:36;;;;;;;;;;;;;;;;;;5050827;28;19931;-58
2022/12/10 11:45:04;;;;;;;;;;;;;;;;;;5035479;28;20260;-56
2022/12/10 11:47:29;;;;;;;;;;;;;;;;;;5051010;28;20053;-57
2022/12/10 11:49:55;;;;;;;;;;;;;;;;;;5034441;28;20454;-57
2022/12/10 11:52:20;;;;;;;;;;;;;;;;;;5030525;28;19979;-58
2022/12/10 11:54:48;;;;;;;;;;;;;;;;;;5032635;28;19977;-58
2022/12/10 11:57:17;;;;;;;;;;;;;;;;;;5030869;28;19924;-61
2022/12/10 11:59:42;;;;;;;;;;;;;;;;;;5053638;28;19927;-58
2022/12/10 12:02:09;;;;;;;;;;;;;;;;;;5055233;28;20375;-58
2022/12/10 12:04:35;;;;;;;;;;;;;;;;;;5051449;28;19927;-58
2022/12/10 12:07:00;;;;;;;;;;;;;;;;;;5052516;28;20148;-58
2022/12/10 12:09:25;;;;;;;;;;;;;;;;;;5056172;28;19985;-58
2022/12/10 12:11:51;;;;;;;;;;;;;;;;;;5016939;28;19919;-58
2022/12/10 12:14:16;;;;;;;;;;;;;;;;;;5048467;28;19920;-58
2022/12/10 12:16:43;;;;;;;;;;;;;;;;;;5045625;28;19920;-58
2022/12/10 12:19:08;;;;;;;;;;;;;;;;;;5030443;28;19924;-58
2022/12/10 12:21:34;;;;;;;;;;;;;;;;;;5053556;28;20158;-58
2022/12/10 12:23:59;;;;;;;;;;;;;;;;;;5057258;28;20548;-58
2022/12/10 12:26:24;;;;;;;;;;;;;;;;;;5045698;28;20371;-58
2022/12/10 12:28:50;;;;;;;;;;;;;;;;;;5062942;28;20723;-60
2022/12/10 12:31:16;;;;;;;;;;;;;;;;;;5062733;28;19977;-60
2022/12/10 12:33:44;;;;;;;;;;;;;;;;;;5059042;28;19920;-60
2022/12/10 12:36:10;;;;;;;;;;;;;;;;;;5026363;28;19947;-60
2022/12/10 12:38:35;;;;;;;;;;;;;;;;;;5055037;28;19916;-60
2022/12/10 12:41:02;;;;;;;;;;;;;;;;;;5061198;28;19921;-59
2022/12/10 12:43:30;;;;;;;;;;;;;;;;;;5056737;28;21676;-59
2022/12/10 12:45:55;;;;;;;;;;;;;;;;;;5053202;28;20425;-59
2022/12/10 12:48:22;;;;;;;;;;;;;;;;;;5056988;28;20002;-59
2022/12/10 12:50:48;;;;;;;;;;;;;;;;;;5056058;28;19920;-59
2022/12/10 12:53:13;;;;;;;;;;;;;;;;;;5053303;28;20164;-59
2022/12/10 12:55:42;;;;;;;;;;;;;;;;;;5058308;28;19920;-59
2022/12/10 12:58:07;;;;;;;;;;;;;;;;;;5040822;28;19923;-60
2022/12/10 13:00:35;;;;;;;;;;;;;;;;;;5056365;28;20019;-60
2022/12/10 13:03:01;;;;;;;;;;;;;;;;;;5055460;28;20302;-59
2022/12/10 13:05:28;;;;;;;;;;;;;;;;;;5038738;28;19955;-63
2022/12/10 13:07:53;;;;;;;;;;;;;;;;;;5040016;28;19920;-60
2022/12/10 13:10:19;;;;;;;;;;;;;;;;;;5036908;28;20359;-59
2022/12/10 13:12:49;;;;;;;;;;;;;;;;;;5023063;28;19923;-59
2022/12/10 13:15:17;;;;;;;;;;;;;;;;;;5058345;28;19959;-59
2022/12/10 13:17:42;;;;;;;;;;;;;;;;;;5052685;28;20098;-60
2022/12/10 13:20:10;;;;;;;;;;;;;;;;;;5025638;28;19926;-60
2022/12/10 13:22:36;;;;;;;;;;;;;;;;;;5023639;28;20032;-59
2022/12/10 13:25:01;;;;;;;;;;;;;;;;;;4955790;28;19922;-60
2022/12/10 13:27:27;;;;;;;;;;;;;;;;;;5019476;28;19926;-59
2022/12/10 13:29:52;;;;;;;;;;;;;;;;;;5021696;28;19930;-59
2022/12/10 13:32:21;;;;;;;;;;;;;;;;;;4956480;28;19929;-60
2022/12/10 13:34:49;;;;;;;;;;;;;;;;;;4956484;28;19921;-59
2022/12/10 13:37:19;;;;;;;;;;;;;;;;;;4952421;28;19952;-60
2022/12/10 13:39:47;;;;;;;;;;;;;;;;;;4951871;28;20079;-59
2022/12/10 13:44:58;;;;;;;;;;;;;;;;;;4954488;28;20364;-59
2022/12/10 13:47:24;;;;;;;;;;;;;;;;;;5007957;28;20131;-59
2022/12/10 13:49:52;;;;;;;;;;;;;;;;;;5018255;28;20060;-60
2022/12/10 13:52:20;;;;;;;;;;;;;;;;;;4949757;28;20036;-59
2022/12/10 13:54:45;;;;;;;;;;;;;;;;;;4953784;28;20094;-59
2022/12/10 13:57:13;;;;;;;;;;;;;;;;;;4950390;28;19952;-58
2022/12/10 13:59:38;;;;;;;;;;;;;;;;;;5018905;28;20041;-59
2022/12/10 14:02:04;;;;;;;;;;;;;;;;;;4956455;28;20336;-59
2022/12/10 14:04:29;;;;;;;;;;;;;;;;;;5031409;28;20464;-59
2022/12/10 14:06:55;;;;;;;;;;;;;;;;;;4955760;28;20048;-60
2022/12/10 14:09:24;;;;;;;;;;;;;;;;;;4955634;28;19922;-60
2022/12/10 14:11:52;;;;;;;;;;;;;;;;;;4955684;28;20093;-60
2022/12/10 14:14:17;;;;;;;;;;;;;;;;;;5024050;28;19930;-60
2022/12/10 14:16:45;;;;;;;;;;;;;;;;;;4957577;28;19993;-59
2022/12/10 14:19:11;;;;;;;;;;;;;;;;;;5020695;28;19922;-60
2022/12/10 14:21:36;;;;;;;;;;;;;;;;;;4959854;28;20016;-59
2022/12/10 14:24:01;;;;;;;;;;;;;;;;;;4951682;28;19922;-61
2022/12/10 14:26:27;;;;;;;;;;;;;;;;;;4937367;28;19918;-59
2022/12/10 14:28:52;;;;;;;;;;;;;;;;;;4953840;28;20502;-61
2022/12/10 14:31:21;;;;;;;;;;;;;;;;;;4939683;28;20073;-60
2022/12/10 14:33:49;;;;;;;;;;;;;;;;;;4929498;28;20361;-60
2022/12/10 14:36:17;;;;;;;;;;;;;;;;;;4937207;28;20336;-60
2022/12/10 14:38:42;;;;;;;;;;;;;;;;;;4942021;28;19926;-60
2022/12/10 14:41:10;;;;;;;;;;;;;;;;;;4936981;28;20414;-59
2022/12/10 14:43:37;;;;;;;;;;;;;;;;;;4950815;28;19926;-61
2022/12/10 14:46:03;;;;;;;;;;;;;;;;;;4940444;28;19922;-60
2022/12/10 14:48:28;;;;;;;;;;;;;;;;;;4934020;28;19926;-60
2022/12/10 14:50:53;;;;;;;;;;;;;;;;;;4937849;28;19926;-60
2022/12/10 14:53:21;;;;;;;;;;;;;;;;;;4939843;28;20564;-60
2022/12/10 14:55:47;;;;;;;;;;;;;;;;;;4936346;28;20167;-59
2022/12/10 14:58:12;;;;;;;;;;;;;;;;;;4946711;28;20342;-60
2022/12/10 15:00:38;;;;;;;;;;;;;;;;;;4937663;28;20661;-61
2022/12/10 15:03:03;;;;;;;;;;;;;;;;;;4956868;28;20408;-60
2022/12/10 15:05:30;;;;;;;;;;;;;;;;;;4937512;28;20421;-60
2022/12/10 15:07:56;;;;;;;;;;;;;;;;;;4938854;28;19922;-59
2022/12/10 15:10:21;;;;;;;;;;;;;;;;;;4936748;28;19922;-60
2022/12/10 15:12:53;;;;;;;;;;;;;;;;;;4937561;28;19918;-59
2022/12/10 15:15:18;;;;;;;;;;;;;;;;;;4936622;28;20118;-59
2022/12/10 15:17:43;;;;;;;;;;;;;;;;;;4934562;28;19929;-60
2022/12/10 15:20:08;;;;;;;;;;;;;;;;;;4931180;28;20464;-60
2022/12/10 15:22:36;;;;;;;;;;;;;;;;;;5019421;28;19930;-60
2022/12/10 15:25:04;;;;;;;;;;;;;;;;;;5023266;28;19933;-60
2022/12/10 15:27:29;;;;;;;;;;;;;;;;;;4954976;28;19953;-60
2022/12/10 15:29:55;;;;;;;;;;;;;;;;;;4959737;28;20344;-60
2022/12/10 15:32:20;;;;;;;;;;;;;;;;;;5040678;28;19947;-61
2022/12/10 15:34:48;;;;;;;;;;;;;;;;;;4956434;28;19947;-61
2022/12/10 15:37:13;;;;;;;;;;;;;;;;;;4956364;28;20338;-59
2022/12/10 15:39:38;;;;;;;;;;;;;;;;;;5023906;28;20266;-61
2022/12/10 15:42:07;;;;;;;;;;;;;;;;;;4956662;28;19991;-59
2022/12/10 15:44:32;;;;;;;;;;;;;;;;;;4956261;28;19939;-59
2022/12/10 15:47:00;;;;;;;;;;;;;;;;;;4954759;28;20267;-61
2022/12/10 15:49:26;;;;;;;;;;;;;;;;;;5021523;28;20020;-61
2022/12/10 15:51:51;;;;;;;;;;;;;;;;;;4954518;28;19921;-61
2022/12/10 15:54:19;;;;;;;;;;;;;;;;;;5036271;28;20286;-59
2022/12/10 15:56:47;;;;;;;;;;;;;;;;;;5010149;28;19918;-61
2022/12/10 15:59:17;;;;;;;;;;;;;;;;;;5023227;28;19922;-61
2022/12/10 16:01:42;;;;;;;;;;;;;;;;;;5020379;28;20056;-61
2022/12/10 16:04:07;;;;;;;;;;;;;;;;;;5039060;28;19922;-61
2022/12/10 16:06:33;;;;;;;;;;;;;;;;;;4957013;28;19924;-61
2022/12/10 16:08:59;;;;;;;;;;;;;;;;;;5020820;28;19918;-61
2022/12/10 16:11:24;;;;;;;;;;;;;;;;;;4955104;28;19953;-59
2022/12/10 16:13:52;;;;;;;;;;;;;;;;;;4954901;28;20954;-60
2022/12/10 16:16:17;;;;;;;;;;;;;;;;;;4955696;28;19929;-60
2022/12/10 16:18:43;;;;;;;;;;;;;;;;;;5018771;28;19918;-60
2022/12/10 16:21:08;;;;;;;;;;;;;;;;;;5034750;28;20293;-60
2022/12/10 16:23:34;;;;;;;;;;;;;;;;;;4951517;28;19917;-62
2022/12/10 16:26:02;;;;;;;;;;;;;;;;;;5035973;28;19922;-61
2022/12/10 16:28:27;;;;;;;;;;;;;;;;;;4953878;28;20301;-62
2022/12/10 16:30:52;;;;;;;;;;;;;;;;;;5005496;28;20091;-61
2022/12/10 16:33:18;;;;;;;;;;;;;;;;;;5040777;28;19922;-62
2022/12/10 16:35:43;;;;;;;;;;;;;;;;;;4955649;28;20007;-61
2022/12/10 16:38:09;;;;;;;;;;;;;;;;;;5023730;28;19922;-61
2022/12/10 16:40:40;;;;;;;;;;;;;;;;;;5025191;28;20423;-61
2022/12/10 16:43:05;;;;;;;;;;;;;;;;;;4952108;28;19936;-61
2022/12/10 16:45:32;;;;;;;;;;;;;;;;;;5001279;28;19925;-62
2022/12/10 16:48:00;;;;;;;;;;;;;;;;;;4950734;28;19922;-61
2022/12/10 16:50:25;;;;;;;;;;;;;;;;;;4954764;28;19953;-61
2022/12/10 16:52:53;;;;;;;;;;;;;;;;;;5024073;28;19926;-61
2022/12/10 16:55:20;;;;;;;;;;;;;;;;;;5039200;28;19922;-60